createdAt,value
2022-11-23T00:00:09.036Z,42.51
2022-11-23T00:02:39.857Z,42.58
2022-11-23T00:05:13.525Z,42.46
2022-11-23T00:07:43.610Z,42.68
2022-11-23T00:10:14.691Z,42.57
2022-11-23T00:12:45.334Z,42.69
2022-11-23T00:15:18.186Z,42.52
2022-11-23T00:17:50.789Z,42.46
2022-11-23T00:20:23.706Z,42.58
2022-11-23T00:22:54.985Z,42.57
2022-11-23T00:25:25.193Z,42.76
2022-11-23T00:27:55.778Z,42.28
2022-11-23T00:30:26.375Z,42.73
2022-11-23T00:32:58.621Z,42.52
2022-11-23T00:35:30.600Z,42.70
2022-11-23T00:38:00.825Z,42.77
2022-11-23T00:40:31.437Z,42.83
2022-11-23T00:43:02.003Z,42.86
2022-11-23T00:45:32.958Z,42.83
2022-11-23T00:48:03.113Z,42.97
2022-11-23T00:50:35.417Z,42.74
2022-11-23T00:53:07.531Z,42.91
2022-11-23T00:55:38.193Z,42.93
2022-11-23T00:58:08.192Z,42.94
2022-11-23T01:00:38.043Z,42.91
2022-11-23T01:03:08.707Z,42.99
2022-11-23T01:05:42.593Z,42.79
2022-11-23T01:08:13.450Z,43.01
2022-11-23T01:10:44.288Z,42.92
2022-11-23T01:13:16.493Z,42.89
2022-11-23T01:15:53.603Z,43.02
2022-11-23T01:18:24.193Z,42.91
2022-11-23T01:20:57.791Z,43.03
2022-11-23T01:23:27.984Z,43.07
2022-11-23T01:25:58.054Z,43.04
2022-11-23T01:28:29.165Z,42.99
2022-11-23T01:31:06.798Z,42.89
2022-11-23T01:33:37.385Z,42.66
2022-11-23T01:36:16.999Z,42.88
2022-11-23T01:38:48.656Z,42.89
2022-11-23T01:41:22.463Z,42.89
2022-11-23T01:43:53.841Z,42.96
2022-11-23T01:46:25.293Z,42.90
2022-11-23T01:49:00.436Z,42.85
2022-11-23T01:51:38.278Z,42.77
2022-11-23T01:54:14.051Z,42.85
2022-11-23T01:56:48.871Z,42.93
2022-11-23T01:59:22.888Z,42.94
2022-11-23T02:01:53.588Z,42.93
2022-11-23T02:04:32.492Z,42.88
2022-11-23T02:07:07.552Z,42.90
2022-11-23T02:09:40.363Z,42.91
2022-11-23T02:12:15.090Z,42.83
2022-11-23T02:14:46.845Z,42.76
2022-11-23T02:17:17.906Z,42.99
2022-11-23T02:20:05.997Z,42.84
2022-11-23T02:22:52.333Z,42.97
2022-11-23T02:25:36.504Z,42.52
2022-11-23T02:28:10.730Z,42.92
2022-11-23T02:30:43.298Z,42.95
2022-11-23T02:33:14.350Z,43.11
2022-11-23T02:35:52.262Z,42.88
2022-11-23T02:38:26.008Z,42.90
2022-11-23T02:40:56.944Z,43.06
2022-11-23T02:43:31.173Z,43.04
2022-11-23T02:46:06.393Z,42.81
2022-11-23T02:48:37.550Z,42.91
2022-11-23T02:51:07.373Z,42.94
2022-11-23T02:53:37.649Z,42.82
2022-11-23T02:56:08.002Z,42.85
2022-11-23T02:58:40.787Z,43.02
2022-11-23T03:01:10.819Z,43.09
2022-11-23T03:03:41.597Z,42.52
2022-11-23T03:06:12.391Z,42.67
2022-11-23T03:08:42.611Z,42.71
2022-11-23T03:11:13.248Z,42.76
2022-11-23T03:13:45.741Z,42.81
2022-11-23T03:16:16.796Z,42.87
2022-11-23T03:18:47.636Z,42.85
2022-11-23T03:21:18.256Z,42.87
2022-11-23T03:23:49.091Z,42.81
2022-11-23T03:26:19.842Z,43.00
2022-11-23T03:28:53.384Z,42.92
2022-11-23T03:31:23.840Z,42.89
2022-11-23T03:33:54.433Z,43.05
2022-11-23T03:36:24.464Z,42.77
2022-11-23T03:38:55.137Z,42.96
2022-11-23T03:41:25.693Z,42.69
2022-11-23T03:43:58.193Z,42.84
2022-11-23T03:46:28.129Z,42.96
2022-11-23T03:48:59.030Z,42.88
2022-11-23T03:51:29.341Z,42.66
2022-11-23T03:53:59.893Z,42.77
2022-11-23T03:56:30.648Z,42.72
2022-11-23T03:59:03.595Z,42.71
2022-11-23T04:01:34.063Z,43.02
2022-11-23T04:04:04.702Z,42.93
2022-11-23T04:06:34.705Z,42.99
2022-11-23T04:09:05.425Z,42.90
2022-11-23T04:11:35.979Z,42.95
2022-11-23T04:14:07.670Z,42.93
2022-11-23T04:16:37.813Z,42.79
2022-11-23T04:19:08.246Z,42.85
2022-11-23T04:21:38.682Z,42.76
2022-11-23T04:24:09.493Z,42.77
2022-11-23T04:26:41.011Z,42.83
2022-11-23T04:29:14.074Z,42.67
2022-11-23T04:31:44.032Z,42.96
2022-11-23T04:34:14.147Z,42.92
2022-11-23T04:36:44.676Z,43.33
2022-11-23T04:39:15.855Z,42.96
2022-11-23T04:41:46.388Z,42.93
2022-11-23T04:44:21.984Z,42.68
2022-11-23T04:46:52.827Z,42.69
2022-11-23T04:49:23.439Z,42.97
2022-11-23T04:51:53.562Z,42.97
2022-11-23T04:54:24.430Z,42.99
2022-11-23T04:56:54.776Z,43.18
2022-11-23T04:59:27.109Z,43.14
2022-11-23T05:01:57.951Z,43.38
2022-11-23T05:04:28.302Z,43.03
2022-11-23T05:06:58.715Z,43.51
2022-11-23T05:09:29.358Z,43.46
2022-11-23T05:11:59.957Z,43.55
2022-11-23T05:14:33.236Z,43.50
2022-11-23T05:17:03.679Z,43.08
2022-11-23T05:19:34.358Z,43.18
2022-11-23T05:22:04.995Z,43.16
2022-11-23T05:24:35.590Z,43.23
2022-11-23T05:27:06.715Z,43.18
2022-11-23T05:29:39.803Z,43.08
2022-11-23T05:32:10.450Z,43.01
2022-11-23T05:34:46.184Z,43.03
2022-11-23T05:37:16.967Z,42.97
2022-11-23T05:39:47.817Z,42.82
2022-11-23T05:42:18.380Z,43.04
2022-11-23T05:44:50.642Z,42.92
2022-11-23T05:47:21.019Z,43.13
2022-11-23T05:49:51.979Z,43.26
2022-11-23T05:52:22.100Z,43.70
2022-11-23T05:54:52.340Z,43.71
2022-11-23T05:57:23.395Z,43.84
2022-11-23T05:59:57.193Z,43.78
2022-11-23T06:02:27.217Z,43.67
2022-11-23T06:04:56.985Z,44.22
2022-11-23T06:07:27.282Z,43.85
2022-11-23T06:09:59.912Z,44.17
2022-11-23T06:12:31.469Z,44.02
2022-11-23T06:15:03.998Z,44.39
2022-11-23T06:17:34.440Z,44.38
2022-11-23T06:20:04.912Z,44.33
2022-11-23T06:22:35.489Z,44.39
2022-11-23T06:25:06.185Z,43.79
2022-11-23T06:27:36.771Z,44.36
2022-11-23T06:30:10.860Z,43.87
2022-11-23T06:32:41.285Z,43.92
2022-11-23T06:35:12.226Z,43.44
2022-11-23T06:37:43.047Z,43.24
2022-11-23T06:40:15.125Z,43.18
2022-11-23T06:42:45.809Z,43.50
2022-11-23T06:45:18.224Z,43.03
2022-11-23T06:47:48.916Z,42.77
2022-11-23T06:50:20.016Z,43.27
2022-11-23T06:52:50.516Z,42.38
2022-11-23T06:55:22.038Z,42.78
2022-11-23T06:57:53.090Z,42.42
2022-11-23T07:00:26.084Z,41.94
2022-11-23T07:02:57.898Z,41.81
2022-11-23T07:05:28.977Z,41.72
2022-11-23T07:08:00.471Z,42.29
2022-11-23T07:10:30.651Z,41.58
2022-11-23T07:13:07.679Z,41.99
2022-11-23T07:15:40.628Z,41.77
2022-11-23T07:18:14.615Z,41.00
2022-11-23T07:20:44.727Z,40.62
2022-11-23T07:23:15.537Z,40.60
2022-11-23T07:25:46.786Z,40.49
2022-11-23T07:28:16.816Z,40.85
2022-11-23T07:30:53.240Z,40.48
2022-11-23T07:33:23.724Z,39.84
2022-11-23T07:35:56.744Z,39.64
2022-11-23T07:38:26.743Z,40.08
2022-11-23T07:41:09.956Z,40.15
2022-11-23T07:43:41.931Z,39.98
2022-11-23T07:46:13.936Z,40.13
2022-11-23T07:49:00.379Z,40.21
2022-11-23T07:51:30.580Z,39.92
2022-11-23T07:54:03.368Z,40.08
2022-11-23T07:56:36.695Z,40.62
2022-11-23T07:59:10.459Z,39.99
2022-11-23T08:01:42.403Z,40.64
2022-11-23T08:04:15.324Z,40.71
2022-11-23T08:06:45.947Z,40.29
2022-11-23T08:09:17.406Z,40.00
2022-11-23T08:11:48.032Z,40.21
2022-11-23T08:14:18.813Z,39.99
2022-11-23T08:16:55.864Z,39.69
2022-11-23T08:19:25.850Z,39.65
2022-11-23T08:21:56.443Z,39.35
2022-11-23T08:24:26.951Z,38.75
2022-11-23T08:26:59.820Z,38.30
2022-11-23T08:29:32.988Z,37.80
2022-11-23T08:32:05.639Z,37.46
2022-11-23T08:34:41.912Z,36.94
2022-11-23T08:37:13.034Z,36.13
2022-11-23T08:39:43.033Z,35.44
2022-11-23T08:42:15.301Z,35.33
2022-11-23T08:44:45.381Z,34.50
2022-11-23T08:47:20.579Z,34.65
2022-11-23T08:49:50.523Z,34.17
2022-11-23T08:52:21.235Z,33.85
2022-11-23T08:54:51.946Z,33.69
2022-11-23T08:57:27.813Z,33.30
2022-11-23T08:59:58.171Z,33.49
2022-11-23T09:02:30.879Z,33.15
2022-11-23T09:05:01.692Z,33.42
2022-11-23T09:07:32.904Z,33.43
2022-11-23T09:10:03.160Z,33.33
2022-11-23T09:12:33.655Z,32.80
2022-11-23T09:15:04.454Z,33.11
2022-11-23T09:17:36.449Z,32.83
2022-11-23T09:20:10.555Z,33.23
2022-11-23T09:22:41.498Z,32.84
2022-11-23T09:25:11.661Z,32.76
2022-11-23T09:27:42.355Z,32.62
2022-11-23T09:30:14.957Z,33.08
2022-11-23T09:32:47.063Z,33.01
2022-11-23T09:35:17.635Z,32.54
2022-11-23T09:37:50.545Z,32.51
2022-11-23T09:40:22.053Z,33.17
2022-11-23T09:43:31.463Z,32.57
2022-11-23T09:46:14.493Z,32.55
2022-11-23T09:49:10.325Z,32.92
2022-11-23T09:51:44.268Z,32.43
2022-11-23T09:54:27.146Z,32.61
2022-11-23T09:57:02.169Z,33.05
2022-11-23T09:59:46.004Z,32.44
2022-11-23T10:02:29.342Z,32.48
2022-11-23T10:05:03.937Z,33.12
2022-11-23T10:07:51.925Z,33.01
2022-11-23T10:10:42.896Z,32.47
2022-11-23T10:13:34.630Z,32.46
2022-11-23T10:16:27.616Z,32.38
2022-11-23T10:19:06.726Z,32.54
2022-11-23T10:21:53.657Z,32.54
2022-11-23T10:24:34.096Z,32.87
2022-11-23T10:27:14.593Z,33.08
2022-11-23T10:29:46.043Z,32.95
2022-11-23T10:32:35.527Z,32.82
2022-11-23T10:35:14.620Z,32.78
2022-11-23T10:37:47.551Z,33.17
2022-11-23T10:40:24.549Z,32.90
2022-11-23T10:43:01.990Z,33.23
2022-11-23T10:45:36.859Z,32.99
2022-11-23T10:48:07.067Z,33.03
2022-11-23T10:50:41.268Z,33.32
2022-11-23T10:53:28.901Z,33.30
2022-11-23T10:56:04.593Z,33.19
2022-11-23T10:58:48.815Z,33.13
2022-11-23T11:01:24.882Z,33.56
2022-11-23T11:03:56.931Z,33.77
2022-11-23T11:06:30.843Z,33.62
2022-11-23T11:09:13.290Z,33.88
2022-11-23T11:11:55.165Z,33.97
2022-11-23T11:14:25.724Z,33.79
2022-11-23T11:16:59.568Z,34.02
2022-11-23T11:19:33.964Z,33.95
2022-11-23T11:22:27.458Z,33.79
2022-11-23T11:25:00.078Z,34.28
2022-11-23T11:27:36.187Z,34.23
2022-11-23T11:30:22.778Z,34.78
2022-11-23T11:33:02.204Z,34.55
2022-11-23T11:35:37.256Z,34.26
2022-11-23T11:38:19.801Z,34.65
2022-11-23T11:40:54.269Z,34.41
2022-11-23T11:43:39.168Z,34.86
2022-11-23T11:46:28.980Z,34.95
2022-11-23T11:49:09.839Z,35.20
2022-11-23T11:51:45.642Z,35.21
2022-11-23T11:54:28.093Z,35.43
2022-11-23T11:57:09.203Z,35.14
2022-11-23T11:59:47.079Z,35.02
2022-11-23T12:02:27.803Z,35.06
2022-11-23T12:05:27.082Z,35.12
2022-11-23T12:08:08.949Z,35.12
2022-11-23T12:10:46.962Z,35.21
2022-11-23T12:13:22.475Z,35.35
2022-11-23T12:16:06.245Z,35.74
2022-11-23T12:19:05.960Z,35.58
2022-11-23T12:22:13.766Z,35.33
2022-11-23T12:25:06.299Z,35.81
2022-11-23T12:27:50.330Z,35.90
2022-11-23T12:30:32.554Z,35.66
2022-11-23T12:33:52.961Z,36.05
2022-11-23T12:36:53.517Z,35.96
2022-11-23T12:40:09.754Z,36.33
2022-11-23T12:42:48.718Z,35.99
2022-11-23T12:45:38.655Z,36.09
2022-11-23T12:48:31.206Z,36.04
2022-11-23T12:51:17.254Z,36.18
2022-11-23T12:54:07.891Z,36.37
2022-11-23T12:57:08.593Z,36.81
2022-11-23T12:59:51.354Z,36.37
2022-11-23T13:03:27.230Z,36.68
2022-11-23T13:07:20.422Z,36.38
2022-11-23T13:10:06.403Z,36.69
2022-11-23T13:13:19.632Z,36.78
2022-11-23T13:16:24.320Z,37.04
2022-11-23T13:19:26.654Z,37.11
2022-11-23T13:21:59.570Z,37.40
2022-11-23T13:24:33.233Z,37.33
2022-11-23T13:27:48.295Z,37.22
2022-11-23T13:33:42.348Z,37.09
2022-11-23T13:36:19.717Z,37.31
2022-11-23T13:38:55.195Z,37.60
2022-11-23T13:42:08.298Z,37.34
2022-11-23T13:44:39.841Z,37.23
2022-11-23T13:47:22.158Z,37.80
2022-11-23T13:49:55.390Z,37.73
2022-11-23T13:52:37.102Z,37.51
2022-11-23T13:55:30.234Z,37.74
2022-11-23T13:58:42.450Z,37.43
2022-11-23T14:01:13.421Z,38.00
2022-11-23T14:03:58.778Z,37.67
2022-11-23T14:06:52.571Z,37.76
2022-11-23T14:09:30.448Z,37.82
2022-11-23T14:12:30.566Z,37.93
2022-11-23T14:15:14.692Z,38.04
2022-11-23T14:18:13.597Z,37.69
2022-11-23T14:21:02.272Z,37.99
2022-11-23T14:24:18.658Z,38.20
2022-11-23T14:27:39.529Z,38.05
2022-11-23T14:30:24.930Z,38.17
2022-11-23T14:33:14.258Z,38.08
2022-11-23T14:35:57.245Z,38.23
2022-11-23T14:39:07.568Z,38.49
2022-11-23T14:41:41.669Z,38.04
2022-11-23T14:44:19.304Z,38.51
2022-11-23T14:47:10.660Z,38.68
2022-11-23T14:49:51.959Z,38.39
2022-11-23T14:52:26.593Z,38.61
2022-11-23T14:55:02.660Z,38.50
2022-11-23T14:57:42.416Z,38.86
2022-11-23T15:00:31.827Z,38.67
2022-11-23T15:03:48.895Z,38.81
2022-11-23T15:06:20.625Z,38.69
2022-11-23T15:09:06.003Z,38.90
2022-11-23T15:11:40.350Z,39.11
2022-11-23T15:14:22.934Z,39.03
2022-11-23T15:16:53.125Z,39.18
2022-11-23T15:19:32.463Z,39.60
2022-11-23T15:22:04.118Z,39.04
2022-11-23T15:24:35.885Z,39.35
2022-11-23T15:27:12.597Z,39.32
2022-11-23T15:29:56.068Z,39.50
2022-11-23T15:32:32.636Z,39.43
2022-11-23T15:35:12.759Z,39.45
2022-11-23T15:37:49.765Z,39.67
2022-11-23T15:40:21.697Z,39.71
2022-11-23T15:42:53.624Z,39.57
2022-11-23T15:46:00.259Z,39.85
2022-11-23T15:48:35.672Z,39.76
2022-11-23T15:51:11.680Z,39.61
2022-11-23T15:53:52.489Z,39.66
2022-11-23T15:56:29.422Z,40.14
2022-11-23T15:59:02.743Z,39.94
2022-11-23T16:01:33.786Z,39.80
2022-11-23T16:04:05.360Z,40.13
2022-11-23T16:06:41.984Z,40.09
2022-11-23T16:09:55.758Z,40.32
2022-11-23T16:12:30.248Z,40.27
2022-11-23T16:15:39.872Z,40.11
2022-11-23T16:18:25.540Z,40.10
2022-11-23T16:21:01.725Z,40.05
2022-11-23T16:23:47.151Z,40.31
2022-11-23T16:26:18.644Z,40.29
2022-11-23T16:28:55.482Z,40.39
2022-11-23T16:31:37.910Z,40.07
2022-11-23T16:34:15.239Z,40.37
2022-11-23T16:36:45.400Z,40.17
2022-11-23T16:39:17.893Z,39.97
2022-11-23T16:41:48.405Z,40.32
2022-11-23T16:44:18.493Z,40.20
2022-11-23T16:46:49.882Z,40.29
2022-11-23T16:49:23.027Z,40.10
2022-11-23T16:51:57.491Z,40.10
2022-11-23T16:54:30.847Z,40.11
2022-11-23T16:57:01.048Z,40.29
2022-11-23T16:59:35.568Z,40.14
2022-11-23T17:02:06.772Z,40.27
2022-11-23T17:04:37.690Z,40.03
2022-11-23T17:07:08.038Z,39.96
2022-11-23T17:09:40.931Z,40.05
2022-11-23T17:12:19.295Z,40.13
2022-11-23T17:14:51.794Z,40.06
2022-11-23T17:17:24.688Z,39.87
2022-11-23T17:19:59.674Z,40.06
2022-11-23T17:22:33.092Z,39.89
2022-11-23T17:25:08.976Z,40.08
2022-11-23T17:27:46.696Z,39.89
2022-11-23T17:30:22.323Z,40.00
2022-11-23T17:32:52.994Z,40.05
2022-11-23T17:35:23.705Z,40.13
2022-11-23T17:37:54.260Z,39.72
2022-11-23T17:40:27.776Z,40.28
2022-11-23T17:42:57.935Z,39.72
2022-11-23T17:45:28.557Z,39.88
2022-11-23T17:48:03.119Z,39.83
2022-11-23T17:50:34.557Z,39.69
2022-11-23T17:53:04.840Z,39.90
2022-11-23T17:55:37.341Z,39.76
2022-11-23T17:58:07.979Z,39.51
2022-11-23T18:00:40.275Z,39.88
2022-11-23T18:03:10.509Z,39.87
2022-11-23T18:05:41.175Z,39.57
2022-11-23T18:08:13.734Z,39.80
2022-11-23T18:10:45.384Z,39.68
2022-11-23T18:13:16.018Z,39.77
2022-11-23T18:15:46.510Z,39.77
2022-11-23T18:18:16.568Z,39.79
2022-11-23T18:20:47.105Z,39.86
2022-11-23T18:23:16.989Z,40.04
2022-11-23T18:26:00.780Z,40.08
2022-11-23T18:28:32.392Z,39.98
2022-11-23T18:31:03.054Z,39.58
2022-11-23T18:33:33.767Z,39.68
2022-11-23T18:36:05.740Z,39.88
2022-11-23T18:38:37.487Z,39.93
2022-11-23T18:41:10.387Z,39.66
2022-11-23T18:43:41.127Z,39.83
2022-11-23T18:46:13.199Z,39.74
2022-11-23T18:48:44.112Z,39.73
2022-11-23T18:51:14.693Z,39.38
2022-11-23T18:53:48.127Z,39.96
2022-11-23T18:56:21.994Z,39.76
2022-11-23T18:58:53.168Z,39.94
2022-11-23T19:01:25.447Z,39.92
2022-11-23T19:03:56.955Z,39.86
2022-11-23T19:06:27.904Z,39.95
2022-11-23T19:08:58.882Z,39.92
2022-11-23T19:11:32.917Z,39.97
2022-11-23T19:14:03.815Z,40.06
2022-11-23T19:16:35.612Z,39.99
2022-11-23T19:19:08.315Z,40.17
2022-11-23T19:21:39.629Z,40.07
2022-11-23T19:24:11.724Z,39.85
2022-11-23T19:26:44.216Z,40.22
2022-11-23T19:29:15.275Z,40.01
2022-11-23T19:31:45.408Z,39.92
2022-11-23T19:34:17.824Z,39.75
2022-11-23T19:36:49.057Z,39.99
2022-11-23T19:39:19.941Z,40.08
2022-11-23T19:41:52.617Z,40.09
2022-11-23T19:44:23.226Z,39.96
2022-11-23T19:46:54.065Z,39.94
2022-11-23T19:49:24.872Z,40.17
2022-11-23T19:51:56.527Z,40.10
2022-11-23T19:54:27.246Z,40.08
2022-11-23T19:56:59.251Z,40.24
2022-11-23T19:59:29.414Z,40.10
2022-11-23T20:02:00.169Z,39.90
2022-11-23T20:04:30.889Z,40.16
2022-11-23T20:07:01.366Z,40.07
2022-11-23T20:09:31.824Z,40.20
2022-11-23T20:12:04.110Z,40.03
2022-11-23T20:14:34.180Z,40.16
2022-11-23T20:17:04.885Z,40.25
2022-11-23T20:19:35.611Z,40.27
2022-11-23T20:22:06.439Z,40.31
2022-11-23T20:24:37.049Z,40.13
2022-11-23T20:27:09.837Z,40.42
2022-11-23T20:29:42.024Z,40.57
2022-11-23T20:32:13.551Z,40.43
2022-11-23T20:34:44.374Z,40.48
2022-11-23T20:37:14.133Z,40.40
2022-11-23T20:39:44.849Z,40.34
2022-11-23T20:42:17.400Z,40.60
2022-11-23T20:44:48.108Z,40.49
2022-11-23T20:47:18.847Z,40.64
2022-11-23T20:49:48.718Z,40.28
2022-11-23T20:52:18.788Z,40.52
2022-11-23T20:54:49.664Z,40.64
2022-11-23T20:57:22.690Z,40.59
2022-11-23T20:59:53.797Z,40.65
2022-11-23T21:02:23.874Z,40.67
2022-11-23T21:04:55.264Z,40.71
2022-11-23T21:07:27.942Z,40.67
2022-11-23T21:09:58.857Z,41.01
2022-11-23T21:12:50.630Z,40.68
2022-11-23T21:15:21.227Z,40.70
2022-11-23T21:17:52.723Z,40.79
2022-11-23T21:20:23.313Z,40.80
2022-11-23T21:22:54.355Z,40.59
2022-11-23T21:25:24.726Z,40.88
2022-11-23T21:27:56.950Z,40.82
2022-11-23T21:30:27.009Z,41.33
2022-11-23T21:32:57.806Z,41.03
2022-11-23T21:35:27.945Z,40.84
2022-11-23T21:37:58.798Z,41.05
2022-11-23T21:40:28.924Z,40.99
2022-11-23T21:43:00.809Z,41.06
2022-11-23T21:45:31.442Z,41.13
2022-11-23T21:48:02.183Z,41.07
2022-11-23T21:50:32.813Z,41.13
2022-11-23T21:53:03.919Z,40.96
2022-11-23T21:55:35.004Z,41.10
2022-11-23T21:58:07.106Z,41.20
2022-11-23T22:00:38.623Z,41.18
2022-11-23T22:03:08.763Z,41.30
2022-11-23T22:05:39.686Z,41.33
2022-11-23T22:11:00.640Z,41.28
2022-11-23T22:13:36.742Z,41.42
2022-11-23T22:16:19.480Z,41.16
2022-11-23T22:18:55.394Z,41.37
2022-11-23T22:21:30.024Z,41.50
2022-11-23T22:24:02.551Z,41.41
2022-11-23T22:26:33.277Z,41.46
2022-11-23T22:29:07.231Z,41.46
2022-11-23T22:31:38.233Z,41.90
2022-11-23T22:34:13.279Z,41.55
2022-11-23T22:36:43.877Z,41.45
2022-11-23T22:39:14.064Z,41.79
2022-11-23T22:41:44.744Z,41.72
2022-11-23T22:44:16.720Z,41.75
2022-11-23T22:46:48.349Z,41.80
2022-11-23T22:49:19.574Z,41.85
2022-11-23T22:51:50.302Z,41.77
2022-11-23T22:54:21.236Z,41.76
2022-11-23T22:56:51.921Z,41.85
2022-11-23T22:59:24.903Z,42.00
2022-11-23T23:01:55.537Z,41.90
2022-11-23T23:04:26.399Z,41.94
2022-11-23T23:06:58.196Z,41.85
2022-11-23T23:09:28.057Z,41.66
2022-11-23T23:11:57.935Z,41.99
2022-11-23T23:14:30.269Z,41.93
2022-11-23T23:17:02.943Z,41.88
2022-11-23T23:19:33.964Z,41.90
2022-11-23T23:22:04.153Z,42.09
2022-11-23T23:24:35.316Z,41.91
2022-11-23T23:27:05.589Z,41.99
2022-11-23T23:29:39.433Z,41.92
2022-11-23T23:32:10.167Z,42.17
2022-11-23T23:34:40.475Z,42.23
2022-11-23T23:37:12.787Z,42.12
2022-11-23T23:39:42.941Z,42.09
2022-11-23T23:42:13.030Z,42.22
2022-11-23T23:44:44.777Z,42.22
2022-11-23T23:47:15.328Z,42.07
2022-11-23T23:49:46.064Z,42.28
2022-11-23T23:52:16.648Z,42.18
2022-11-23T23:54:47.139Z,42.28
2022-11-23T23:57:17.681Z,42.35
2022-11-23T23:59:49.895Z,42.30
